Airfield :
LOGIN :

Register | Disclaimer

   EN    FR    IT 

 










Legend :    VFR   Marginal VFR   IFR   Intensive IFR   Very Intensive IFR
Visi :
Ceiling :
>= 8 km
>= 3000ft
5 to 8 km
1000 to 3000 ft
1500m to 5 km
500 to 1000 ft
800 to 1500m
200 to 500 ft
< 800m
< 200 ft
Symbols :   Thunderstorms  Fog  Heavy snow  Heavy precipitations  Wind > 20 kt
SIGMETs :     Misc.  Thunderstorms  Icing  Turbulence  Mountain Waves  Volcanic Ashes






- Airport Elevation : 412 ft
- IATA code : ORE


LFOJ - Orleans

CURRENT METAR :
  • 192200Z AUTO 21007KT 9999 FEW021 19/18 Q1010

EXPIRED METARs :
  • 192130Z AUTO 19008KT 9999 SCT003 SCT210 19/18 Q1010
  • 192100Z AUTO 18006KT 9999 FEW006 SCT200 BKN240 19/18 Q1009
  • 192030Z AUTO 19003KT 9999 SCT005 BKN013 BKN180 19/17 Q1009
  • 192000Z AUTO 20003KT 9999 FEW010 BKN094 BKN180 19/17 Q1009
  • 191930Z AUTO 20003KT CAVOK 19/17 Q1009

TAF TAF LFOJ
Valid from the 19 at 15:00 until the 20 at 15:00 UTC


191400Z 1915/2015 16009KT 9999 BKN045 TX26/1915Z TN15/2005Z
TEMPO 1915/1919 31015G25KT 4900 -SHRA BKN040TCU
TEMPO 1916/1919 3000 TSRA BKN035CB
TEMPO 2000/2004 BKN008
TEMPO 2014/2015 17020G30KT 4000 -TSRA BKN020CB



MET'MAP, your aeronautical weather chart ! - Copyright ORBIFLY December 2007 - Disclaimer

ORBIFLY MET'MAP TEAM :

Programming & Development : Alexandra Zaïnal
Concept & original design : Baudouin d'Aumeries
Assistance for programming : Marc-Olivier Méhu
Technical & hardware support : Manuel Goepfert

Contact : metmap@orbifly.com




SOURCES & CREDITS :

   NOAA